createdAt,value
2023-05-22T00:01:39.174Z,99.90
2023-05-22T00:04:06.606Z,99.90
2023-05-22T00:06:34.282Z,99.90
2023-05-22T00:09:02.198Z,99.90
2023-05-22T00:11:29.440Z,99.90
2023-05-22T00:13:57.170Z,99.90
2023-05-22T00:16:24.550Z,99.90
2023-05-22T00:18:52.083Z,99.90
2023-05-22T00:21:20.006Z,99.90
2023-05-22T00:23:47.588Z,99.90
2023-05-22T00:26:18.809Z,99.90
2023-05-22T00:28:46.463Z,99.90
2023-05-22T00:31:15.213Z,99.90
2023-05-22T00:33:42.433Z,99.90
2023-05-22T00:36:10.032Z,99.90
2023-05-22T00:38:38.295Z,99.90
2023-05-22T00:41:06.861Z,99.90
2023-05-22T00:43:34.442Z,99.90
2023-05-22T00:46:02.085Z,99.90
2023-05-22T00:48:29.328Z,99.90
2023-05-22T00:50:59.017Z,99.90
2023-05-22T00:53:30.682Z,99.90
2023-05-22T00:55:59.967Z,99.90
2023-05-22T00:58:28.119Z,99.90
2023-05-22T01:00:57.063Z,99.90
2023-05-22T01:03:30.163Z,99.90
2023-05-22T01:05:57.573Z,99.90
2023-05-22T01:08:25.145Z,99.90
2023-05-22T01:11:02.304Z,99.90
2023-05-22T01:13:42.118Z,99.90
2023-05-22T01:16:25.310Z,99.90
2023-05-22T01:19:16.331Z,99.90
2023-05-22T01:21:57.006Z,99.90
2023-05-22T01:24:43.573Z,99.90
2023-05-22T01:27:29.179Z,99.90
2023-05-22T01:30:15.116Z,99.90
2023-05-22T01:32:46.703Z,99.90
2023-05-22T01:35:16.013Z,99.90
2023-05-22T01:37:44.042Z,99.90
2023-05-22T01:40:12.827Z,99.90
2023-05-22T01:42:41.410Z,99.90
2023-05-22T01:45:12.500Z,99.90
2023-05-22T01:47:40.976Z,99.90
2023-05-22T01:50:08.732Z,99.90
2023-05-22T01:53:06.206Z,99.90
2023-05-22T01:55:56.032Z,99.90
2023-05-22T01:58:56.596Z,99.90
2023-05-22T02:01:29.080Z,99.90
2023-05-22T02:03:58.333Z,99.90
2023-05-22T02:06:29.058Z,99.90
2023-05-22T02:08:56.882Z,99.90
2023-05-22T02:11:27.237Z,99.90
2023-05-22T02:13:55.895Z,99.90
2023-05-22T02:16:24.054Z,99.90
2023-05-22T02:18:54.286Z,99.90
2023-05-22T02:21:22.669Z,99.90
2023-05-22T02:23:50.187Z,99.90
2023-05-22T02:26:18.598Z,99.90
2023-05-22T02:28:46.007Z,99.90
2023-05-22T02:31:13.581Z,99.90
2023-05-22T02:33:40.864Z,99.90
2023-05-22T02:36:11.014Z,99.90
2023-05-22T02:38:39.070Z,99.90
2023-05-22T02:41:07.938Z,99.90
2023-05-22T02:43:35.781Z,99.90
2023-05-22T02:46:03.145Z,99.90
2023-05-22T02:48:30.730Z,99.90
2023-05-22T02:50:58.144Z,99.90
2023-05-22T02:53:25.485Z,99.90
2023-05-22T02:55:53.331Z,99.90
2023-05-22T02:58:23.369Z,99.90
2023-05-22T03:00:53.172Z,99.90
2023-05-22T03:03:20.628Z,99.90
2023-05-22T03:05:48.118Z,99.90
2023-05-22T03:08:16.150Z,99.90
2023-05-22T03:10:43.536Z,99.90
2023-05-22T03:13:11.077Z,99.90
2023-05-22T03:15:38.615Z,99.90
2023-05-22T03:18:13.063Z,99.90
2023-05-22T03:20:42.154Z,99.90
2023-05-22T03:23:11.515Z,99.90
2023-05-22T03:25:39.084Z,99.90
2023-05-22T03:28:06.771Z,99.90
2023-05-22T03:30:38.218Z,99.90
2023-05-22T03:33:12.308Z,99.90
2023-05-22T03:35:40.276Z,99.90
2023-05-22T03:38:07.561Z,99.90
2023-05-22T03:40:35.185Z,99.90
2023-05-22T03:43:02.414Z,99.90
2023-05-22T03:45:29.817Z,99.90
2023-05-22T03:47:57.693Z,99.90
2023-05-22T03:50:24.993Z,99.90
2023-05-22T03:52:52.381Z,99.90
2023-05-22T03:55:20.008Z,99.90
2023-05-22T03:57:47.448Z,99.90
2023-05-22T04:00:17.195Z,99.90
2023-05-22T04:02:47.083Z,99.90
2023-05-22T04:05:14.507Z,99.90
2023-05-22T04:07:41.791Z,99.90
2023-05-22T04:10:09.437Z,99.90
2023-05-22T04:12:36.857Z,99.90
2023-05-22T04:15:04.617Z,99.90
2023-05-22T04:17:35.607Z,99.90
2023-05-22T04:20:06.729Z,99.90
2023-05-22T04:22:34.182Z,99.90
2023-05-22T04:25:04.588Z,99.90
2023-05-22T04:27:33.308Z,99.90
2023-05-22T04:30:02.483Z,99.90
2023-05-22T04:32:30.009Z,99.90
2023-05-22T04:34:58.564Z,99.90
2023-05-22T04:37:28.764Z,99.90
2023-05-22T04:40:02.996Z,99.90
2023-05-22T04:42:31.000Z,99.90
2023-05-22T04:44:58.336Z,99.90
2023-05-22T04:47:25.735Z,99.90
2023-05-22T04:49:53.297Z,99.90
2023-05-22T04:52:21.417Z,99.90
2023-05-22T04:54:51.876Z,99.90
2023-05-22T04:57:21.418Z,99.90
2023-05-22T04:59:49.101Z,99.90
2023-05-22T05:02:16.617Z,99.90
2023-05-22T05:04:43.892Z,99.90
2023-05-22T05:07:13.590Z,99.90
2023-05-22T05:09:40.785Z,99.90
2023-05-22T05:12:08.847Z,99.90
2023-05-22T05:14:36.621Z,99.90
2023-05-22T05:17:04.809Z,99.90
2023-05-22T05:19:36.840Z,99.90
2023-05-22T05:22:04.938Z,99.90
2023-05-22T05:24:32.315Z,99.90
2023-05-22T05:27:00.069Z,99.90
2023-05-22T05:29:27.527Z,99.90
2023-05-22T05:32:04.229Z,99.90
2023-05-22T05:34:53.860Z,99.90
2023-05-22T05:37:31.301Z,99.90
2023-05-22T05:40:00.801Z,99.90
2023-05-22T05:42:28.301Z,99.90
2023-05-22T05:44:58.593Z,99.90
2023-05-22T05:47:29.941Z,99.90
2023-05-22T05:49:58.316Z,99.90
2023-05-22T05:52:32.729Z,99.90
2023-05-22T05:55:03.305Z,99.90
2023-05-22T05:57:32.164Z,99.90
2023-05-22T05:59:59.669Z,99.90
2023-05-22T06:02:50.740Z,99.90
2023-05-22T06:05:34.603Z,99.90
2023-05-22T06:08:14.393Z,99.90
2023-05-22T06:10:42.236Z,99.90
2023-05-22T06:13:31.598Z,99.90
2023-05-22T06:16:02.142Z,99.90
2023-05-22T06:18:35.008Z,99.90
2023-05-22T06:21:02.409Z,99.90
2023-05-22T06:23:29.807Z,99.90
2023-05-22T06:25:57.489Z,99.90
2023-05-22T06:28:27.734Z,99.90
2023-05-22T06:30:59.875Z,99.90
2023-05-22T06:33:29.636Z,99.90
2023-05-22T06:35:57.280Z,99.90
2023-05-22T06:38:25.119Z,99.90
2023-05-22T06:40:52.397Z,99.90
2023-05-22T06:43:23.369Z,99.90
2023-05-22T06:46:07.312Z,99.90
2023-05-22T06:48:37.688Z,99.90
2023-05-22T06:51:34.401Z,99.90
2023-05-22T06:54:07.739Z,99.90
2023-05-22T06:56:37.185Z,99.90
2023-05-22T06:59:09.949Z,99.90
2023-05-22T07:02:03.728Z,99.90
2023-05-22T07:04:50.354Z,99.90
2023-05-22T07:07:21.869Z,99.90
2023-05-22T07:09:49.297Z,99.90
2023-05-22T07:12:17.979Z,99.90
2023-05-22T07:14:45.924Z,99.90
2023-05-22T07:17:13.651Z,99.90
2023-05-22T07:19:44.591Z,99.90
2023-05-22T07:22:11.836Z,99.90
2023-05-22T07:24:40.298Z,99.90
2023-05-22T07:27:09.324Z,99.90
2023-05-22T07:29:38.184Z,99.90
2023-05-22T07:32:07.286Z,99.90
2023-05-22T07:34:35.880Z,99.90
2023-05-22T07:37:11.445Z,99.90
2023-05-22T07:39:39.737Z,99.90
2023-05-22T07:42:07.867Z,99.90
2023-05-22T07:44:41.454Z,99.90
2023-05-22T07:47:09.395Z,99.90
2023-05-22T07:49:37.060Z,99.90
2023-05-22T07:52:04.730Z,99.90
2023-05-22T07:54:32.161Z,99.90
2023-05-22T07:57:03.347Z,99.90
2023-05-22T07:59:35.843Z,99.90
2023-05-22T08:02:03.156Z,99.90
2023-05-22T08:04:30.650Z,99.90
2023-05-22T08:06:57.989Z,99.90
2023-05-22T08:09:25.790Z,99.90
2023-05-22T08:11:53.187Z,99.90
2023-05-22T08:14:22.258Z,99.90
2023-05-22T08:16:49.673Z,99.90
2023-05-22T08:19:17.274Z,99.90
2023-05-22T08:21:44.709Z,99.90
2023-05-22T08:24:11.915Z,99.90
2023-05-22T08:26:40.492Z,99.90
2023-05-22T08:29:07.766Z,99.90
2023-05-22T08:31:36.043Z,99.90
2023-05-22T08:34:04.884Z,99.90
2023-05-22T08:36:34.098Z,99.90
2023-05-22T08:39:02.208Z,99.90
2023-05-22T08:41:30.348Z,99.90
2023-05-22T08:43:58.042Z,99.90
2023-05-22T08:46:26.656Z,99.90
2023-05-22T08:48:57.966Z,99.90
2023-05-22T08:51:34.375Z,99.90
2023-05-22T08:54:06.915Z,99.90
2023-05-22T08:56:39.683Z,99.90
2023-05-22T08:59:13.607Z,99.90
2023-05-22T09:01:41.052Z,99.90
2023-05-22T09:04:08.847Z,99.90
2023-05-22T09:06:38.703Z,99.90
2023-05-22T09:09:06.090Z,99.90
2023-05-22T09:11:33.461Z,99.90
2023-05-22T09:14:10.850Z,99.90
2023-05-22T09:16:49.641Z,99.90
2023-05-22T09:19:17.144Z,99.90
2023-05-22T09:21:44.747Z,99.90
2023-05-22T09:24:12.346Z,99.90
2023-05-22T09:26:40.316Z,99.90
2023-05-22T09:29:08.177Z,99.90
2023-05-22T09:31:43.376Z,99.90
2023-05-22T09:34:14.509Z,99.90
2023-05-22T09:36:42.801Z,99.90
2023-05-22T09:39:11.229Z,99.90
2023-05-22T09:41:40.594Z,99.90
2023-05-22T09:44:14.081Z,99.90
2023-05-22T09:46:48.145Z,99.90
2023-05-22T09:49:17.252Z,99.90
2023-05-22T09:51:48.473Z,99.90
2023-05-22T09:54:17.755Z,99.90
2023-05-22T09:56:48.118Z,99.90
2023-05-22T09:59:20.927Z,99.90
2023-05-22T10:01:50.357Z,99.90
2023-05-22T10:04:19.485Z,99.90
2023-05-22T10:07:02.472Z,99.20
2023-05-22T10:09:34.346Z,98.90
2023-05-22T10:12:09.804Z,99.40
2023-05-22T10:14:38.463Z,97.20
2023-05-22T10:17:07.371Z,98.40
2023-05-22T10:19:39.732Z,98.70
2023-05-22T10:22:16.964Z,98.20
2023-05-22T10:24:47.952Z,97.80
2023-05-22T10:27:15.633Z,98.80
2023-05-22T10:29:55.880Z,99.10
2023-05-22T10:32:29.565Z,98.10
2023-05-22T10:35:06.941Z,97.60
2023-05-22T10:37:52.026Z,98.20
2023-05-22T10:40:29.212Z,97.30
2023-05-22T10:43:01.383Z,98.60
2023-05-22T10:45:30.152Z,97.50
2023-05-22T10:48:08.601Z,97.40
2023-05-22T10:50:37.247Z,96.10
2023-05-22T10:53:21.445Z,96.40
2023-05-22T10:55:54.196Z,96.00
2023-05-22T10:58:37.454Z,96.40
2023-05-22T11:01:14.113Z,97.50
2023-05-22T11:03:59.128Z,96.60
2023-05-22T11:07:01.943Z,96.90
2023-05-22T11:09:43.461Z,96.80
2023-05-22T11:12:21.263Z,97.00
2023-05-22T11:14:53.645Z,97.00
2023-05-22T11:17:29.569Z,97.30
2023-05-22T11:20:19.323Z,97.30
2023-05-22T11:23:08.640Z,96.30
2023-05-22T11:25:37.818Z,96.60
2023-05-22T11:28:06.605Z,96.90
2023-05-22T11:30:35.030Z,96.70
2023-05-22T11:33:03.178Z,96.20
2023-05-22T11:35:31.229Z,96.00
2023-05-22T11:37:59.171Z,95.80
2023-05-22T11:40:29.817Z,96.40
2023-05-22T11:42:57.615Z,95.70
2023-05-22T11:45:26.154Z,96.60
2023-05-22T11:47:53.438Z,96.60
2023-05-22T11:50:33.485Z,96.50
2023-05-22T11:53:08.287Z,97.50
2023-05-22T11:55:35.995Z,96.70
2023-05-22T11:58:03.403Z,97.30
2023-05-22T12:00:34.059Z,96.50
2023-05-22T12:03:01.602Z,96.70
2023-05-22T12:05:31.834Z,95.30
2023-05-22T12:07:59.481Z,93.00
2023-05-22T12:10:26.890Z,93.00
2023-05-22T12:12:55.236Z,91.90
2023-05-22T12:15:24.345Z,91.00
2023-05-22T12:17:56.059Z,92.40
2023-05-22T12:20:23.476Z,92.80
2023-05-22T12:22:50.776Z,93.00
2023-05-22T12:25:18.397Z,94.00
2023-05-22T12:27:46.173Z,93.00
2023-05-22T12:30:14.767Z,91.80
2023-05-22T12:32:46.955Z,93.20
2023-05-22T12:35:18.422Z,93.60
2023-05-22T12:37:49.635Z,92.70
2023-05-22T12:40:16.926Z,93.10
2023-05-22T12:42:45.735Z,93.00
2023-05-22T12:45:13.584Z,92.90
2023-05-22T12:47:41.250Z,93.10
2023-05-22T12:50:09.150Z,93.00
2023-05-22T12:52:36.840Z,93.30
2023-05-22T12:55:04.703Z,92.80
2023-05-22T12:57:33.135Z,92.30
2023-05-22T13:00:00.481Z,92.90
2023-05-22T13:02:27.824Z,90.60
2023-05-22T13:04:55.372Z,91.40
2023-05-22T13:07:22.898Z,91.50
2023-05-22T13:09:50.177Z,90.00
2023-05-22T13:12:19.586Z,88.60
2023-05-22T13:14:47.317Z,86.20
2023-05-22T13:17:14.532Z,84.50
2023-05-22T13:19:42.111Z,87.80
2023-05-22T13:22:09.368Z,87.80
2023-05-22T13:24:36.734Z,90.00
2023-05-22T13:27:04.251Z,89.80
2023-05-22T13:29:32.494Z,90.50
2023-05-22T13:32:00.789Z,88.00
2023-05-22T13:34:29.179Z,85.30
2023-05-22T13:36:56.909Z,87.50
2023-05-22T13:39:24.469Z,86.30
2023-05-22T13:41:54.868Z,86.50
2023-05-22T13:44:22.199Z,86.10
2023-05-22T13:46:49.636Z,84.60
2023-05-22T13:49:17.245Z,86.60
2023-05-22T13:51:44.625Z,87.80
2023-05-22T13:54:11.989Z,87.00
2023-05-22T13:56:39.653Z,85.70
2023-05-22T13:59:09.196Z,86.00
2023-05-22T14:01:36.816Z,85.10
2023-05-22T14:04:06.113Z,87.10
2023-05-22T14:06:33.324Z,88.20
2023-05-22T14:09:01.051Z,87.60
2023-05-22T14:11:28.333Z,89.20
2023-05-22T14:13:55.605Z,87.30
2023-05-22T14:16:23.206Z,88.00
2023-05-22T14:18:50.644Z,84.40
2023-05-22T14:21:19.071Z,85.20
2023-05-22T14:23:46.545Z,85.30
2023-05-22T14:26:14.607Z,85.80
2023-05-22T14:28:42.534Z,87.60
2023-05-22T14:31:09.899Z,85.50
2023-05-22T14:33:37.488Z,86.00
2023-05-22T14:36:04.981Z,84.90
2023-05-22T14:38:36.388Z,84.10
2023-05-22T14:41:03.614Z,85.10
2023-05-22T14:43:31.025Z,84.70
2023-05-22T14:45:59.367Z,84.60
2023-05-22T14:48:26.913Z,85.30
2023-05-22T14:50:54.438Z,85.00
2023-05-22T14:53:21.859Z,85.30
2023-05-22T14:55:49.553Z,85.10
2023-05-22T14:58:17.018Z,86.30
2023-05-22T15:00:46.081Z,86.00
2023-05-22T15:03:13.763Z,87.70
2023-05-22T15:05:41.461Z,88.40
2023-05-22T15:08:08.922Z,87.80
2023-05-22T15:10:37.336Z,87.00
2023-05-22T15:13:04.641Z,84.80
2023-05-22T15:15:32.360Z,85.50
2023-05-22T15:18:02.905Z,85.10
2023-05-22T15:20:30.965Z,85.70
2023-05-22T15:22:59.420Z,85.40
2023-05-22T15:25:26.820Z,85.10
2023-05-22T15:27:54.125Z,83.60
2023-05-22T15:30:23.562Z,84.10
2023-05-22T15:32:51.142Z,83.50
2023-05-22T15:35:18.875Z,83.50
2023-05-22T15:37:46.622Z,82.90
2023-05-22T15:40:17.601Z,83.00
2023-05-22T15:42:45.092Z,83.90
2023-05-22T15:45:12.534Z,82.80
2023-05-22T15:47:40.001Z,83.70
2023-05-22T15:50:07.832Z,83.00
2023-05-22T15:52:35.414Z,82.00
2023-05-22T15:55:02.975Z,81.80
2023-05-22T15:57:30.586Z,81.00
2023-05-22T15:59:57.917Z,81.50
2023-05-22T16:02:25.802Z,82.80
2023-05-22T16:04:53.328Z,80.60
2023-05-22T16:07:20.694Z,81.20
2023-05-22T16:09:50.250Z,82.30
2023-05-22T16:12:18.497Z,82.50
2023-05-22T16:14:45.881Z,83.20
2023-05-22T16:17:13.802Z,84.20
2023-05-22T16:19:41.068Z,83.70
2023-05-22T16:22:08.673Z,83.80
2023-05-22T16:24:36.040Z,85.30
2023-05-22T16:27:03.727Z,84.60
2023-05-22T16:29:32.590Z,86.00
2023-05-22T16:32:00.090Z,86.00
2023-05-22T16:34:27.459Z,86.00
2023-05-22T16:36:54.724Z,85.40
2023-05-22T16:39:21.930Z,86.50
2023-05-22T16:41:50.089Z,85.10
2023-05-22T16:44:18.843Z,88.20
2023-05-22T16:46:46.195Z,87.20
2023-05-22T16:49:13.522Z,88.70
2023-05-22T16:51:41.030Z,88.70
2023-05-22T16:54:08.488Z,89.70
2023-05-22T16:56:35.910Z,90.20
2023-05-22T16:59:04.813Z,90.10
2023-05-22T17:01:32.273Z,90.80
2023-05-22T17:03:59.706Z,90.90
2023-05-22T17:06:27.943Z,91.50
2023-05-22T17:08:56.171Z,91.90
2023-05-22T17:11:25.036Z,91.90
2023-05-22T17:13:52.929Z,92.10
2023-05-22T17:16:21.232Z,92.60
2023-05-22T17:18:48.663Z,92.70
2023-05-22T17:21:17.535Z,93.40
2023-05-22T17:23:45.073Z,93.20
2023-05-22T17:26:14.445Z,93.10
2023-05-22T17:28:41.918Z,93.30
2023-05-22T17:31:09.775Z,93.50
2023-05-22T17:33:37.524Z,94.30
2023-05-22T17:36:05.782Z,93.90
2023-05-22T17:38:33.530Z,93.90
2023-05-22T17:41:01.543Z,93.80
2023-05-22T17:43:30.030Z,94.10
2023-05-22T17:45:58.073Z,93.90
2023-05-22T17:48:27.679Z,94.10
2023-05-22T17:50:55.978Z,94.10
2023-05-22T17:53:45.941Z,94.20
2023-05-22T17:56:28.495Z,94.50
2023-05-22T17:59:08.001Z,94.60
2023-05-22T18:01:52.356Z,94.40
2023-05-22T18:04:41.123Z,94.50
2023-05-22T18:07:27.658Z,94.80
2023-05-22T18:10:28.170Z,94.90
2023-05-22T18:13:10.982Z,95.30
2023-05-22T18:15:57.041Z,96.50
2023-05-22T18:18:39.409Z,97.60
2023-05-22T18:21:21.160Z,97.20
2023-05-22T18:23:58.346Z,97.40
2023-05-22T18:26:41.473Z,97.70
2023-05-22T18:29:27.235Z,97.90
2023-05-22T18:32:04.873Z,98.60
2023-05-22T18:34:53.064Z,99.00
2023-05-22T18:37:33.617Z,99.10
2023-05-22T18:40:41.223Z,98.90
2023-05-22T18:43:30.774Z,98.40
2023-05-22T18:46:11.457Z,98.80
2023-05-22T18:49:10.251Z,99.30
2023-05-22T18:52:11.246Z,99.20
2023-05-22T18:54:51.860Z,99.80
2023-05-22T18:57:51.869Z,99.40
2023-05-22T19:00:32.605Z,99.30
2023-05-22T19:03:21.259Z,99.20
2023-05-22T19:05:55.374Z,98.90
2023-05-22T19:08:44.589Z,99.00
2023-05-22T19:11:34.347Z,98.80
2023-05-22T19:14:13.588Z,98.90
2023-05-22T19:17:00.332Z,99.30
2023-05-22T19:19:36.988Z,99.70
2023-05-22T19:22:20.672Z,99.80
2023-05-22T19:25:11.929Z,99.90
2023-05-22T19:27:43.174Z,99.90
2023-05-22T19:33:08.914Z,99.90
2023-05-22T19:38:53.093Z,99.90
2023-05-22T19:42:00.178Z,99.90
2023-05-22T19:44:36.214Z,99.90
2023-05-22T19:47:05.618Z,99.90
2023-05-22T19:49:41.825Z,99.90
2023-05-22T19:52:17.583Z,99.90
2023-05-22T19:55:21.088Z,99.90
2023-05-22T19:57:52.906Z,99.90
2023-05-22T20:00:42.341Z,99.90
2023-05-22T20:03:21.864Z,99.90
2023-05-22T20:05:57.055Z,99.90
2023-05-22T20:08:34.652Z,99.90
2023-05-22T20:11:18.643Z,99.90
2023-05-22T20:13:57.275Z,99.90
2023-05-22T20:16:42.028Z,99.90
2023-05-22T20:19:17.763Z,99.90
2023-05-22T20:22:25.065Z,99.90
2023-05-22T20:25:30.262Z,99.90
2023-05-22T20:28:27.518Z,99.90
2023-05-22T20:31:18.744Z,99.90
2023-05-22T20:33:57.696Z,99.90
2023-05-22T20:40:16.054Z,99.90
2023-05-22T20:43:09.642Z,99.90
2023-05-22T20:49:12.862Z,99.90
2023-05-22T20:54:51.180Z,99.90
2023-05-22T20:57:27.220Z,99.90
2023-05-22T21:00:22.397Z,99.90
2023-05-22T21:03:09.796Z,99.90
2023-05-22T21:05:50.561Z,99.90
2023-05-22T21:08:32.150Z,99.90
2023-05-22T21:11:24.387Z,99.90
2023-05-22T21:14:11.477Z,99.90
2023-05-22T21:17:01.081Z,99.90
2023-05-22T21:20:00.240Z,99.90
2023-05-22T21:22:38.198Z,99.90
2023-05-22T21:25:24.758Z,99.90
2023-05-22T21:27:56.338Z,99.90
2023-05-22T21:33:46.950Z,99.90
2023-05-22T21:36:23.176Z,99.90
2023-05-22T21:39:01.792Z,99.90
2023-05-22T21:42:05.053Z,99.90
2023-05-22T21:44:44.124Z,99.90
2023-05-22T21:47:24.698Z,99.90
2023-05-22T21:50:00.321Z,99.90
2023-05-22T21:52:41.252Z,99.90
2023-05-22T21:55:22.987Z,99.90
2023-05-22T21:58:03.787Z,99.90
2023-05-22T22:00:50.933Z,99.90
2023-05-22T22:03:29.655Z,99.90
2023-05-22T22:06:09.512Z,99.90
2023-05-22T22:08:42.734Z,99.90
2023-05-22T22:11:30.072Z,99.90
2023-05-22T22:14:05.488Z,99.90
2023-05-22T22:16:53.843Z,99.90
2023-05-22T22:19:27.782Z,99.90
2023-05-22T22:22:17.962Z,99.90
2023-05-22T22:25:06.637Z,99.90
2023-05-22T22:27:48.994Z,99.90
2023-05-22T22:30:33.314Z,99.90
2023-05-22T22:33:20.008Z,99.90
2023-05-22T22:35:56.990Z,99.90
2023-05-22T22:38:29.821Z,99.90
2023-05-22T22:41:14.947Z,99.90
2023-05-22T22:44:02.738Z,99.90
2023-05-22T22:47:11.042Z,99.90
2023-05-22T22:50:13.885Z,99.90
2023-05-22T22:52:54.746Z,99.90
2023-05-22T22:55:34.731Z,99.90
2023-05-22T22:58:23.158Z,99.90
2023-05-22T23:00:58.848Z,99.90
2023-05-22T23:03:45.372Z,99.90
2023-05-22T23:06:15.119Z,99.90
2023-05-22T23:09:06.967Z,99.90
2023-05-22T23:12:01.031Z,99.90
2023-05-22T23:14:32.950Z,99.90
2023-05-22T23:23:40.938Z,99.90
2023-05-22T23:29:21.331Z,99.90
2023-05-22T23:31:57.927Z,99.90
2023-05-22T23:34:39.593Z,99.90
2023-05-22T23:37:24.622Z,99.90
2023-05-22T23:39:58.367Z,99.90
2023-05-22T23:42:58.176Z,99.90
2023-05-22T23:48:25.746Z,99.90
2023-05-22T23:51:32.228Z,99.90
2023-05-22T23:54:07.663Z,99.90
2023-05-22T23:56:39.182Z,99.90
2023-05-22T23:59:25.056Z,99.90
